sensor_id;sensor_type;location;lat;lon;timestamp;pressure;altitude;pressure_sealevel;temperature;humidity
12868;BME280;33517;49.866;8.320;2023-01-25T00:00:23;102397.41;;;3.81;83.77
12868;BME280;33517;49.866;8.320;2023-01-25T00:03:15;102394.69;;;3.84;83.82
12868;BME280;33517;49.866;8.320;2023-01-25T00:06:07;102389.25;;;3.89;83.48
12868;BME280;33517;49.866;8.320;2023-01-25T00:08:59;102382.66;;;3.82;83.67
12868;BME280;33517;49.866;8.320;2023-01-25T00:11:51;102382.56;;;3.83;83.45
12868;BME280;33517;49.866;8.320;2023-01-25T00:14:47;102380.81;;;3.84;83.54
12868;BME280;33517;49.866;8.320;2023-01-25T00:17:39;102381.09;;;3.78;84.11
12868;BME280;33517;49.866;8.320;2023-01-25T00:20:31;102376.19;;;3.71;83.97
12868;BME280;33517;49.866;8.320;2023-01-25T00:23:23;102380.19;;;3.79;84.32
12868;BME280;33517;49.866;8.320;2023-01-25T00:26:15;102374.84;;;3.82;84.22
12868;BME280;33517;49.866;8.320;2023-01-25T00:29:08;102369.63;;;3.82;84.33
12868;BME280;33517;49.866;8.320;2023-01-25T00:32:28;102375.75;;;3.81;83.73
12868;BME280;33517;49.866;8.320;2023-01-25T00:35:23;102367.97;;;3.81;84.71
12868;BME280;33517;49.866;8.320;2023-01-25T00:38:27;102369.63;;;3.82;83.83
12868;BME280;33517;49.866;8.320;2023-01-25T00:41:20;102371.47;;;3.80;84.03
12868;BME280;33517;49.866;8.320;2023-01-25T00:44:12;102368.09;;;3.78;84.22
12868;BME280;33517;49.866;8.320;2023-01-25T00:47:04;102366.63;;;3.72;84.35
12868;BME280;33517;49.866;8.320;2023-01-25T00:49:57;102363.13;;;3.73;84.45
12868;BME280;33517;49.866;8.320;2023-01-25T00:52:49;102365.78;;;3.71;84.67
12868;BME280;33517;49.866;8.320;2023-01-25T00:55:41;102360.34;;;3.76;84.54
12868;BME280;33517;49.866;8.320;2023-01-25T00:58:41;102359.97;;;3.84;84.29
12868;BME280;33517;49.866;8.320;2023-01-25T01:01:33;102350.34;;;3.86;84.35
12868;BME280;33517;49.866;8.320;2023-01-25T01:04:25;102353.78;;;3.86;84.31
12868;BME280;33517;49.866;8.320;2023-01-25T01:07:19;102363.44;;;3.84;84.18
12868;BME280;33517;49.866;8.320;2023-01-25T01:10:10;102354.78;;;3.84;84.28
12868;BME280;33517;49.866;8.320;2023-01-25T01:13:02;102358.16;;;3.86;84.16
12868;BME280;33517;49.866;8.320;2023-01-25T01:15:54;102364.28;;;3.85;84.33
12868;BME280;33517;49.866;8.320;2023-01-25T01:18:46;102362.28;;;3.90;84.23
12868;BME280;33517;49.866;8.320;2023-01-25T01:21:38;102352.47;;;3.95;84.26
12868;BME280;33517;49.866;8.320;2023-01-25T01:24:31;102350.66;;;3.97;84.16
12868;BME280;33517;49.866;8.320;2023-01-25T01:27:23;102345.34;;;3.98;84.45
12868;BME280;33517;49.866;8.320;2023-01-25T01:30:15;102355.94;;;3.95;84.08
12868;BME280;33517;49.866;8.320;2023-01-25T01:33:07;102347.72;;;3.86;84.19
12868;BME280;33517;49.866;8.320;2023-01-25T01:36:05;102345.41;;;3.80;84.56
12868;BME280;33517;49.866;8.320;2023-01-25T01:38:58;102348.97;;;3.79;84.58
12868;BME280;33517;49.866;8.320;2023-01-25T01:41:51;102350.03;;;3.74;84.67
12868;BME280;33517;49.866;8.320;2023-01-25T01:44:46;102346.56;;;3.74;84.81
12868;BME280;33517;49.866;8.320;2023-01-25T01:47:41;102342.34;;;3.71;84.85
12868;BME280;33517;49.866;8.320;2023-01-25T01:50:35;102344.81;;;3.74;85.44
12868;BME280;33517;49.866;8.320;2023-01-25T01:53:29;102339.00;;;3.87;84.53
12868;BME280;33517;49.866;8.320;2023-01-25T01:56:28;102338.84;;;3.90;84.52
12868;BME280;33517;49.866;8.320;2023-01-25T01:59:26;102337.03;;;3.92;84.34
12868;BME280;33517;49.866;8.320;2023-01-25T02:02:20;102334.56;;;3.89;84.15
12868;BME280;33517;49.866;8.320;2023-01-25T02:05:16;102332.03;;;3.87;84.04
12868;BME280;33517;49.866;8.320;2023-01-25T02:08:12;102321.78;;;3.84;84.19
12868;BME280;33517;49.866;8.320;2023-01-25T02:11:06;102321.84;;;3.83;84.66
12868;BME280;33517;49.866;8.320;2023-01-25T02:13:59;102318.53;;;3.79;84.07
12868;BME280;33517;49.866;8.320;2023-01-25T02:16:53;102322.97;;;3.77;84.98
12868;BME280;33517;49.866;8.320;2023-01-25T02:19:53;102325.75;;;3.74;84.96
12868;BME280;33517;49.866;8.320;2023-01-25T02:22:53;102318.09;;;3.71;84.92
12868;BME280;33517;49.866;8.320;2023-01-25T02:25:48;102313.88;;;3.68;85.04
12868;BME280;33517;49.866;8.320;2023-01-25T02:28:44;102320.28;;;3.61;85.25
12868;BME280;33517;49.866;8.320;2023-01-25T02:31:37;102316.84;;;3.61;84.86
12868;BME280;33517;49.866;8.320;2023-01-25T02:34:29;102325.56;;;3.60;85.19
12868;BME280;33517;49.866;8.320;2023-01-25T02:37:21;102325.56;;;3.60;85.42
12868;BME280;33517;49.866;8.320;2023-01-25T02:40:13;102331.59;;;3.60;85.41
12868;BME280;33517;49.866;8.320;2023-01-25T02:43:06;102323.13;;;3.57;85.42
12868;BME280;33517;49.866;8.320;2023-01-25T02:46:04;102326.50;;;3.59;85.55
12868;BME280;33517;49.866;8.320;2023-01-25T02:49:03;102324.72;;;3.59;85.70
12868;BME280;33517;49.866;8.320;2023-01-25T02:51:55;102330.06;;;3.56;85.69
12868;BME280;33517;49.866;8.320;2023-01-25T02:54:47;102326.94;;;3.50;85.91
12868;BME280;33517;49.866;8.320;2023-01-25T02:57:39;102325.22;;;3.49;86.00
12868;BME280;33517;49.866;8.320;2023-01-25T03:00:32;102316.00;;;3.60;85.81
12868;BME280;33517;49.866;8.320;2023-01-25T03:03:24;102311.94;;;3.55;85.85
12868;BME280;33517;49.866;8.320;2023-01-25T03:06:16;102316.72;;;3.45;86.31
12868;BME280;33517;49.866;8.320;2023-01-25T03:09:10;102313.06;;;3.49;85.73
12868;BME280;33517;49.866;8.320;2023-01-25T03:12:02;102310.25;;;3.54;86.24
12868;BME280;33517;49.866;8.320;2023-01-25T03:14:54;102305.59;;;3.60;85.94
12868;BME280;33517;49.866;8.320;2023-01-25T03:17:48;102306.22;;;3.65;85.60
12868;BME280;33517;49.866;8.320;2023-01-25T03:20:39;102302.06;;;3.61;85.62
12868;BME280;33517;49.866;8.320;2023-01-25T03:23:31;102297.84;;;3.59;85.90
12868;BME280;33517;49.866;8.320;2023-01-25T03:26:26;102281.69;;;3.69;85.77
12868;BME280;33517;49.866;8.320;2023-01-25T03:29:18;102270.31;;;3.72;85.38
12868;BME280;33517;49.866;8.320;2023-01-25T03:32:10;102284.31;;;3.69;85.42
12868;BME280;33517;49.866;8.320;2023-01-25T03:35:05;102285.22;;;3.68;85.60
12868;BME280;33517;49.866;8.320;2023-01-25T03:37:57;102283.47;;;3.69;85.69
12868;BME280;33517;49.866;8.320;2023-01-25T03:40:48;102279.94;;;3.70;85.57
12868;BME280;33517;49.866;8.320;2023-01-25T03:43:40;102285.84;;;3.73;85.87
12868;BME280;33517;49.866;8.320;2023-01-25T03:46:32;102286.97;;;3.68;85.56
12868;BME280;33517;49.866;8.320;2023-01-25T03:49:24;102282.72;;;3.67;85.72
12868;BME280;33517;49.866;8.320;2023-01-25T03:52:18;102286.31;;;3.64;85.63
12868;BME280;33517;49.866;8.320;2023-01-25T03:55:10;102273.97;;;3.68;85.43
12868;BME280;33517;49.866;8.320;2023-01-25T03:58:02;102283.63;;;3.66;85.73
12868;BME280;33517;49.866;8.320;2023-01-25T04:00:55;102273.06;;;3.69;85.60
12868;BME280;33517;49.866;8.320;2023-01-25T04:03:47;102274.81;;;3.68;85.73
12868;BME280;33517;49.866;8.320;2023-01-25T04:06:39;102280.50;;;3.77;85.85
12868;BME280;33517;49.866;8.320;2023-01-25T04:09:32;102272.00;;;3.73;85.40
12868;BME280;33517;49.866;8.320;2023-01-25T04:12:24;102278.19;;;3.70;85.66
12868;BME280;33517;49.866;8.320;2023-01-25T04:15:16;102269.63;;;3.68;85.89
12868;BME280;33517;49.866;8.320;2023-01-25T04:18:08;102273.38;;;3.63;86.47
12868;BME280;33517;49.866;8.320;2023-01-25T04:21:00;102272.59;;;3.61;86.54
12868;BME280;33517;49.866;8.320;2023-01-25T04:23:52;102274.97;;;3.65;86.21
12868;BME280;33517;49.866;8.320;2023-01-25T04:26:45;102267.78;;;3.70;85.84
12868;BME280;33517;49.866;8.320;2023-01-25T04:29:37;102271.28;;;3.69;86.26
12868;BME280;33517;49.866;8.320;2023-01-25T04:32:29;102265.41;;;3.66;86.10
12868;BME280;33517;49.866;8.320;2023-01-25T04:35:21;102263.25;;;3.74;86.20
12868;BME280;33517;49.866;8.320;2023-01-25T04:38:13;102258.53;;;3.82;86.26
12868;BME280;33517;49.866;8.320;2023-01-25T04:41:04;102258.59;;;3.81;85.61
12868;BME280;33517;49.866;8.320;2023-01-25T04:43:58;102251.94;;;3.75;85.83
12868;BME280;33517;49.866;8.320;2023-01-25T04:46:49;102253.16;;;3.68;85.86
12868;BME280;33517;49.866;8.320;2023-01-25T04:49:41;102257.97;;;3.58;86.38
12868;BME280;33517;49.866;8.320;2023-01-25T04:52:33;102255.97;;;3.46;86.84
12868;BME280;33517;49.866;8.320;2023-01-25T04:55:25;102257.88;;;3.43;86.92
12868;BME280;33517;49.866;8.320;2023-01-25T04:58:17;102257.56;;;3.49;86.81
12868;BME280;33517;49.866;8.320;2023-01-25T05:01:11;102252.59;;;3.44;87.27
12868;BME280;33517;49.866;8.320;2023-01-25T05:04:02;102251.88;;;3.41;87.34
12868;BME280;33517;49.866;8.320;2023-01-25T05:06:54;102249.06;;;3.45;87.00
12868;BME280;33517;49.866;8.320;2023-01-25T05:09:46;102241.88;;;3.50;87.00
12868;BME280;33517;49.866;8.320;2023-01-25T05:12:38;102236.63;;;3.52;87.13
12868;BME280;33517;49.866;8.320;2023-01-25T05:15:30;102226.13;;;3.53;86.98
12868;BME280;33517;49.866;8.320;2023-01-25T05:18:23;102217.63;;;3.50;87.16
12868;BME280;33517;49.866;8.320;2023-01-25T05:21:15;102224.75;;;3.46;87.34
12868;BME280;33517;49.866;8.320;2023-01-25T05:24:20;102217.84;;;3.45;87.53
12868;BME280;33517;49.866;8.320;2023-01-25T05:27:14;102214.19;;;3.49;87.47
12868;BME280;33517;49.866;8.320;2023-01-25T05:30:07;102211.41;;;3.52;87.06
12868;BME280;33517;49.866;8.320;2023-01-25T05:32:59;102206.38;;;3.49;87.40
12868;BME280;33517;49.866;8.320;2023-01-25T05:35:53;102209.16;;;3.46;87.24
12868;BME280;33517;49.866;8.320;2023-01-25T05:38:45;102211.88;;;3.43;87.39
12868;BME280;33517;49.866;8.320;2023-01-25T05:41:37;102210.13;;;3.44;87.30
12868;BME280;33517;49.866;8.320;2023-01-25T05:44:29;102201.69;;;3.39;87.15
12868;BME280;33517;49.866;8.320;2023-01-25T05:47:21;102209.66;;;3.36;87.39
12868;BME280;33517;49.866;8.320;2023-01-25T05:50:12;102199.47;;;3.31;87.89
12868;BME280;33517;49.866;8.320;2023-01-25T05:53:06;102205.44;;;3.33;87.69
12868;BME280;33517;49.866;8.320;2023-01-25T05:56:03;102204.06;;;3.26;88.10
12868;BME280;33517;49.866;8.320;2023-01-25T05:58:57;102197.88;;;3.29;88.37
12868;BME280;33517;49.866;8.320;2023-01-25T06:01:49;102211.19;;;3.23;87.99
12868;BME280;33517;49.866;8.320;2023-01-25T06:04:40;102192.03;;;3.24;87.68
12868;BME280;33517;49.866;8.320;2023-01-25T06:07:32;102201.13;;;3.15;88.71
12868;BME280;33517;49.866;8.320;2023-01-25T06:10:27;102203.88;;;3.12;89.03
12868;BME280;33517;49.866;8.320;2023-01-25T06:13:19;102192.56;;;3.13;89.35
12868;BME280;33517;49.866;8.320;2023-01-25T06:16:11;102203.38;;;3.23;88.42
12868;BME280;33517;49.866;8.320;2023-01-25T06:19:03;102196.63;;;3.19;88.59
12868;BME280;33517;49.866;8.320;2023-01-25T06:21:55;102203.50;;;3.20;88.58
12868;BME280;33517;49.866;8.320;2023-01-25T06:24:47;102210.84;;;3.12;88.65
12868;BME280;33517;49.866;8.320;2023-01-25T06:27:40;102212.13;;;3.03;89.10
12868;BME280;33517;49.866;8.320;2023-01-25T06:30:32;102207.47;;;3.10;89.08
12868;BME280;33517;49.866;8.320;2023-01-25T06:33:24;102206.25;;;3.17;88.96
12868;BME280;33517;49.866;8.320;2023-01-25T06:36:18;102205.78;;;3.09;89.01
12868;BME280;33517;49.866;8.320;2023-01-25T06:39:10;102203.09;;;3.10;89.17
12868;BME280;33517;49.866;8.320;2023-01-25T06:42:03;102197.69;;;3.15;88.75
12868;BME280;33517;49.866;8.320;2023-01-25T06:44:57;102197.78;;;3.13;88.51
12868;BME280;33517;49.866;8.320;2023-01-25T06:47:49;102199.59;;;3.11;89.02
12868;BME280;33517;49.866;8.320;2023-01-25T06:50:41;102200.56;;;3.09;88.45
12868;BME280;33517;49.866;8.320;2023-01-25T06:53:35;102203.38;;;3.23;89.01
12868;BME280;33517;49.866;8.320;2023-01-25T06:56:27;102192.50;;;3.32;88.49
12868;BME280;33517;49.866;8.320;2023-01-25T06:59:19;102196.72;;;3.34;88.16
12868;BME280;33517;49.866;8.320;2023-01-25T07:02:13;102200.56;;;3.44;87.72
12868;BME280;33517;49.866;8.320;2023-01-25T07:05:06;102195.19;;;3.47;88.04
12868;BME280;33517;49.866;8.320;2023-01-25T07:07:58;102193.53;;;3.46;87.56
12868;BME280;33517;49.866;8.320;2023-01-25T07:10:53;102195.38;;;3.44;87.52
12868;BME280;33517;49.866;8.320;2023-01-25T07:13:46;102196.25;;;3.43;87.52
12868;BME280;33517;49.866;8.320;2023-01-25T07:16:38;102198.03;;;3.43;87.45
12868;BME280;33517;49.866;8.320;2023-01-25T07:19:31;102201.63;;;3.40;88.05
12868;BME280;33517;49.866;8.320;2023-01-25T07:22:23;102199.09;;;3.39;87.85
12868;BME280;33517;49.866;8.320;2023-01-25T07:25:15;102200.50;;;3.10;88.58
12868;BME280;33517;49.866;8.320;2023-01-25T07:28:07;102209.59;;;3.02;88.86
12868;BME280;33517;49.866;8.320;2023-01-25T07:31:03;102201.34;;;3.11;89.22
12868;BME280;33517;49.866;8.320;2023-01-25T07:33:57;102206.56;;;3.11;88.97
12868;BME280;33517;49.866;8.320;2023-01-25T07:36:50;102208.19;;;3.13;88.69
12868;BME280;33517;49.866;8.320;2023-01-25T07:39:42;102204.66;;;3.14;88.34
12868;BME280;33517;49.866;8.320;2023-01-25T07:42:39;102208.69;;;3.20;88.44
12868;BME280;33517;49.866;8.320;2023-01-25T07:45:31;102207.47;;;3.10;88.75
12868;BME280;33517;49.866;8.320;2023-01-25T07:48:23;102210.00;;;3.11;88.58
12868;BME280;33517;49.866;8.320;2023-01-25T07:51:16;102206.09;;;3.20;88.65
12868;BME280;33517;49.866;8.320;2023-01-25T07:54:14;102199.47;;;3.31;88.71
12868;BME280;33517;49.866;8.320;2023-01-25T07:57:06;102206.13;;;3.37;88.37
12868;BME280;33517;49.866;8.320;2023-01-25T07:59:58;102198.69;;;3.29;88.11
12868;BME280;33517;49.866;8.320;2023-01-25T08:02:50;102195.47;;;3.24;88.22
12868;BME280;33517;49.866;8.320;2023-01-25T08:05:43;102203.06;;;3.12;88.17
12868;BME280;33517;49.866;8.320;2023-01-25T08:08:37;102196.91;;;3.13;88.50
12868;BME280;33517;49.866;8.320;2023-01-25T08:11:31;102195.00;;;3.16;88.35
12868;BME280;33517;49.866;8.320;2023-01-25T08:14:23;102201.06;;;3.17;88.28
12868;BME280;33517;49.866;8.320;2023-01-25T08:17:15;102201.63;;;3.23;88.35
12868;BME280;33517;49.866;8.320;2023-01-25T08:20:08;102193.72;;;3.25;87.87
12868;BME280;33517;49.866;8.320;2023-01-25T08:23:00;102193.63;;;3.09;88.12
12868;BME280;33517;49.866;8.320;2023-01-25T08:25:52;102196.03;;;3.14;88.56
12868;BME280;33517;49.866;8.320;2023-01-25T08:28:45;102195.09;;;3.15;88.42
12868;BME280;33517;49.866;8.320;2023-01-25T08:31:39;102190.88;;;3.12;87.97
12868;BME280;33517;49.866;8.320;2023-01-25T08:34:33;102196.38;;;3.06;88.05
12868;BME280;33517;49.866;8.320;2023-01-25T08:37:25;102194.59;;;3.07;88.75
12868;BME280;33517;49.866;8.320;2023-01-25T08:40:19;102192.78;;;3.09;88.60
12868;BME280;33517;49.866;8.320;2023-01-25T08:43:11;102187.44;;;3.12;88.36
12868;BME280;33517;49.866;8.320;2023-01-25T08:46:04;102195.00;;;3.16;88.63
12868;BME280;33517;49.866;8.320;2023-01-25T08:48:56;102194.03;;;3.19;88.61
12868;BME280;33517;49.866;8.320;2023-01-25T08:51:48;102184.78;;;3.13;88.66
12868;BME280;33517;49.866;8.320;2023-01-25T08:54:42;102183.38;;;3.06;88.70
12868;BME280;33517;49.866;8.320;2023-01-25T08:57:34;102184.66;;;2.98;88.57
12868;BME280;33517;49.866;8.320;2023-01-25T09:00:26;102180.31;;;2.98;88.98
12868;BME280;33517;49.866;8.320;2023-01-25T09:03:19;102179.84;;;3.07;88.87
12868;BME280;33517;49.866;8.320;2023-01-25T09:06:11;102173.22;;;3.19;89.06
12868;BME280;33517;49.866;8.320;2023-01-25T09:09:04;102181.03;;;3.19;88.42
12868;BME280;33517;49.866;8.320;2023-01-25T09:11:58;102172.94;;;3.25;88.51
12868;BME280;33517;49.866;8.320;2023-01-25T09:14:49;102177.59;;;3.35;88.26
12868;BME280;33517;49.866;8.320;2023-01-25T09:17:41;102172.00;;;3.43;88.11
12868;BME280;33517;49.866;8.320;2023-01-25T09:20:37;102170.41;;;3.40;87.97
12868;BME280;33517;49.866;8.320;2023-01-25T09:23:29;102159.84;;;3.26;87.80
12868;BME280;33517;49.866;8.320;2023-01-25T09:26:20;102163.28;;;3.27;88.21
12868;BME280;33517;49.866;8.320;2023-01-25T09:29:12;102157.84;;;3.31;88.27
12868;BME280;33517;49.866;8.320;2023-01-25T09:32:04;102162.44;;;3.26;87.93
12868;BME280;33517;49.866;8.320;2023-01-25T09:34:56;102157.84;;;3.31;88.04
12868;BME280;33517;49.866;8.320;2023-01-25T09:37:50;102156.84;;;3.34;88.07
12868;BME280;33517;49.866;8.320;2023-01-25T09:40:49;102160.69;;;3.27;87.63
12868;BME280;33517;49.866;8.320;2023-01-25T09:43:58;102150.41;;;3.24;87.92
12868;BME280;33517;49.866;8.320;2023-01-25T09:46:58;102151.34;;;3.06;88.31
12868;BME280;33517;49.866;8.320;2023-01-25T09:50:18;102152.13;;;3.25;88.39
12868;BME280;33517;49.866;8.320;2023-01-25T09:53:27;102157.16;;;3.28;87.86
12868;BME280;33517;49.866;8.320;2023-01-25T09:56:23;102151.03;;;3.29;87.90
12868;BME280;33517;49.866;8.320;2023-01-25T09:59:18;102159.66;;;3.29;87.81
12868;BME280;33517;49.866;8.320;2023-01-25T10:02:21;102153.09;;;3.22;87.73
12868;BME280;33517;49.866;8.320;2023-01-25T10:05:19;102154.63;;;3.26;88.15
12868;BME280;33517;49.866;8.320;2023-01-25T10:08:18;102153.72;;;3.44;87.80
12868;BME280;33517;49.866;8.320;2023-01-25T10:11:19;102150.19;;;3.45;87.14
12868;BME280;33517;49.866;8.320;2023-01-25T10:14:15;102147.91;;;3.39;87.00
12868;BME280;33517;49.866;8.320;2023-01-25T10:17:13;102148.44;;;3.46;87.38
12868;BME280;33517;49.866;8.320;2023-01-25T10:20:16;102140.84;;;3.41;87.54
12868;BME280;33517;49.866;8.320;2023-01-25T10:26:35;102133.06;;;3.41;87.90
12868;BME280;33517;49.866;8.320;2023-01-25T10:29:30;102126.59;;;3.48;87.91
12868;BME280;33517;49.866;8.320;2023-01-25T10:32:25;102127.75;;;3.60;87.62
12868;BME280;33517;49.866;8.320;2023-01-25T10:35:25;102117.88;;;3.66;87.37
12868;BME280;33517;49.866;8.320;2023-01-25T10:38:22;102122.16;;;3.50;86.95
12868;BME280;33517;49.866;8.320;2023-01-25T10:41:18;102118.66;;;3.51;86.73
12868;BME280;33517;49.866;8.320;2023-01-25T10:44:13;102104.41;;;3.58;86.89
12868;BME280;33517;49.866;8.320;2023-01-25T10:47:18;102095.28;;;3.67;86.94
12868;BME280;33517;49.866;8.320;2023-01-25T10:50:42;102089.06;;;3.69;86.53
12868;BME280;33517;49.866;8.320;2023-01-25T10:53:37;102090.13;;;3.50;86.82
12868;BME280;33517;49.866;8.320;2023-01-25T10:56:29;102080.50;;;3.35;87.62
12868;BME280;33517;49.866;8.320;2023-01-25T10:59:26;102073.22;;;3.41;87.05
12868;BME280;33517;49.866;8.320;2023-01-25T11:02:44;102072.31;;;3.42;87.34
12868;BME280;33517;49.866;8.320;2023-01-25T11:05:37;102059.91;;;3.30;87.39
12868;BME280;33517;49.866;8.320;2023-01-25T11:08:34;102058.97;;;3.31;87.26
12868;BME280;33517;49.866;8.320;2023-01-25T11:11:31;102054.63;;;3.32;87.94
12868;BME280;33517;49.866;8.320;2023-01-25T11:14:28;102048.25;;;3.37;87.55
12868;BME280;33517;49.866;8.320;2023-01-25T11:17:24;102045.06;;;3.32;88.13
12868;BME280;33517;49.866;8.320;2023-01-25T11:20:18;102043.69;;;3.42;87.88
12868;BME280;33517;49.866;8.320;2023-01-25T11:23:21;102034.63;;;3.49;87.63
12868;BME280;33517;49.866;8.320;2023-01-25T11:26:15;102035.22;;;3.54;87.25
12868;BME280;33517;49.866;8.320;2023-01-25T11:29:12;102023.69;;;3.43;87.16
12868;BME280;33517;49.866;8.320;2023-01-25T11:32:14;102015.47;;;3.50;87.37
12868;BME280;33517;49.866;8.320;2023-01-25T11:35:12;102016.25;;;3.52;86.80
12868;BME280;33517;49.866;8.320;2023-01-25T11:38:10;102018.75;;;3.38;86.74
12868;BME280;33517;49.866;8.320;2023-01-25T11:41:10;102018.44;;;3.44;87.12
12868;BME280;33517;49.866;8.320;2023-01-25T11:44:33;102011.78;;;3.54;86.96
12868;BME280;33517;49.866;8.320;2023-01-25T11:47:58;102005.69;;;3.55;87.02
12868;BME280;33517;49.866;8.320;2023-01-25T11:51:01;102005.97;;;3.34;86.46
12868;BME280;33517;49.866;8.320;2023-01-25T11:54:04;102003.09;;;3.23;87.07
12868;BME280;33517;49.866;8.320;2023-01-25T11:57:08;101995.34;;;3.38;87.30
12868;BME280;33517;49.866;8.320;2023-01-25T12:00:17;101989.88;;;3.43;87.21
12868;BME280;33517;49.866;8.320;2023-01-25T12:03:53;101988.19;;;3.42;87.06
12868;BME280;33517;49.866;8.320;2023-01-25T12:06:57;101971.06;;;3.38;87.08
12868;BME280;33517;49.866;8.320;2023-01-25T12:10:00;101961.50;;;3.38;87.08
12868;BME280;33517;49.866;8.320;2023-01-25T12:12:58;101962.84;;;3.45;86.71
12868;BME280;33517;49.866;8.320;2023-01-25T12:16:02;101948.75;;;3.49;86.26
12868;BME280;33517;49.866;8.320;2023-01-25T12:19:22;101936.00;;;3.60;86.15
12868;BME280;33517;49.866;8.320;2023-01-25T12:22:37;101939.53;;;3.59;86.66
12868;BME280;33517;49.866;8.320;2023-01-25T12:25:38;101934.66;;;3.53;86.07
12868;BME280;33517;49.866;8.320;2023-01-25T12:28:38;101918.13;;;3.54;86.25
12868;BME280;33517;49.866;8.320;2023-01-25T12:31:38;101916.69;;;3.49;86.45
12868;BME280;33517;49.866;8.320;2023-01-25T12:34:36;101911.81;;;3.43;86.41
12868;BME280;33517;49.866;8.320;2023-01-25T12:37:31;101907.38;;;3.45;86.82
12868;BME280;33517;49.866;8.320;2023-01-25T12:40:34;101897.81;;;3.61;86.62
12868;BME280;33517;49.866;8.320;2023-01-25T12:43:36;101888.06;;;3.49;86.86
12868;BME280;33517;49.866;8.320;2023-01-25T12:46:31;101889.06;;;3.62;86.88
12868;BME280;33517;49.866;8.320;2023-01-25T12:49:29;101887.56;;;3.58;86.49
12868;BME280;33517;49.866;8.320;2023-01-25T12:52:29;101881.09;;;3.49;86.75
12868;BME280;33517;49.866;8.320;2023-01-25T12:55:22;101874.53;;;3.58;86.62
12868;BME280;33517;49.866;8.320;2023-01-25T12:58:20;101864.66;;;3.64;86.37
12868;BME280;33517;49.866;8.320;2023-01-25T13:01:19;101865.06;;;3.72;86.23
12868;BME280;33517;49.866;8.320;2023-01-25T13:04:23;101860.28;;;3.65;86.08
12868;BME280;33517;49.866;8.320;2023-01-25T13:07:20;101858.34;;;3.68;86.07
12868;BME280;33517;49.866;8.320;2023-01-25T13:10:19;101859.44;;;3.64;85.74
12868;BME280;33517;49.866;8.320;2023-01-25T13:13:21;101859.78;;;3.58;86.46
12868;BME280;33517;49.866;8.320;2023-01-25T13:16:34;101854.75;;;3.71;86.44
12868;BME280;33517;49.866;8.320;2023-01-25T13:19:38;101848.03;;;3.67;85.82
12868;BME280;33517;49.866;8.320;2023-01-25T13:22:54;101849.38;;;3.58;86.29
12868;BME280;33517;49.866;8.320;2023-01-25T13:25:49;101836.00;;;3.64;86.06
12868;BME280;33517;49.866;8.320;2023-01-25T13:28:42;101831.56;;;3.51;85.84
12868;BME280;33517;49.866;8.320;2023-01-25T13:31:43;101819.94;;;3.42;86.26
12868;BME280;33517;49.866;8.320;2023-01-25T13:34:57;101808.94;;;3.37;86.32
12868;BME280;33517;49.866;8.320;2023-01-25T13:37:56;101801.41;;;3.33;86.46
12868;BME280;33517;49.866;8.320;2023-01-25T13:41:06;101803.72;;;3.37;86.61
12868;BME280;33517;49.866;8.320;2023-01-25T13:44:18;101810.63;;;3.38;86.66
12868;BME280;33517;49.866;8.320;2023-01-25T13:47:12;101798.44;;;3.39;86.18
12868;BME280;33517;49.866;8.320;2023-01-25T13:50:12;101794.41;;;3.33;86.47
12868;BME280;33517;49.866;8.320;2023-01-25T13:53:18;101796.00;;;3.36;86.58
12868;BME280;33517;49.866;8.320;2023-01-25T13:56:28;101791.03;;;3.31;86.35
12868;BME280;33517;49.866;8.320;2023-01-25T13:59:25;101794.59;;;3.30;86.99
12868;BME280;33517;49.866;8.320;2023-01-25T14:02:19;101790.13;;;3.32;86.51
12868;BME280;33517;49.866;8.320;2023-01-25T14:05:17;101785.09;;;3.29;86.90
12868;BME280;33517;49.866;8.320;2023-01-25T14:08:09;101784.28;;;3.29;86.51
12868;BME280;33517;49.866;8.320;2023-01-25T14:11:01;101787.25;;;3.37;86.67
12868;BME280;33517;49.866;8.320;2023-01-25T14:14:03;101784.59;;;3.23;86.80
12868;BME280;33517;49.866;8.320;2023-01-25T14:17:14;101774.78;;;3.28;86.73
12868;BME280;33517;49.866;8.320;2023-01-25T14:20:16;101769.34;;;3.32;87.51
12868;BME280;33517;49.866;8.320;2023-01-25T14:23:24;101759.94;;;3.30;86.77
12868;BME280;33517;49.866;8.320;2023-01-25T14:26:19;101762.38;;;3.33;86.93
12868;BME280;33517;49.866;8.320;2023-01-25T14:29:17;101749.78;;;3.25;86.75
12868;BME280;33517;49.866;8.320;2023-01-25T14:32:13;101752.03;;;3.31;86.83
12868;BME280;33517;49.866;8.320;2023-01-25T14:35:38;101739.88;;;3.32;86.64
12868;BME280;33517;49.866;8.320;2023-01-25T14:38:33;101738.97;;;3.33;86.78
12868;BME280;33517;49.866;8.320;2023-01-25T14:41:28;101744.06;;;3.34;86.39
12868;BME280;33517;49.866;8.320;2023-01-25T14:44:21;101737.13;;;3.35;86.72
12868;BME280;33517;49.866;8.320;2023-01-25T14:47:25;101735.16;;;3.38;86.53
12868;BME280;33517;49.866;8.320;2023-01-25T14:50:30;101732.41;;;3.26;86.92
12868;BME280;33517;49.866;8.320;2023-01-25T14:53:23;101712.94;;;3.33;86.81
12868;BME280;33517;49.866;8.320;2023-01-25T14:56:24;101719.47;;;3.40;86.77
12868;BME280;33517;49.866;8.320;2023-01-25T14:59:28;101706.25;;;3.29;86.67
12868;BME280;33517;49.866;8.320;2023-01-25T15:02:24;101699.69;;;3.22;87.27
12868;BME280;33517;49.866;8.320;2023-01-25T15:05:19;101702.72;;;3.14;87.32
12868;BME280;33517;49.866;8.320;2023-01-25T15:08:14;101706.41;;;3.10;87.32
12868;BME280;33517;49.866;8.320;2023-01-25T15:11:26;101710.28;;;3.19;86.95
12868;BME280;33517;49.866;8.320;2023-01-25T15:14:46;101700.06;;;3.16;87.23
12868;BME280;33517;49.866;8.320;2023-01-25T15:17:42;101703.66;;;3.13;86.80
12868;BME280;33517;49.866;8.320;2023-01-25T15:20:36;101701.63;;;3.18;87.20
12868;BME280;33517;49.866;8.320;2023-01-25T15:23:28;101687.47;;;3.08;87.26
12868;BME280;33517;49.866;8.320;2023-01-25T15:26:22;101688.91;;;3.14;87.12
12868;BME280;33517;49.866;8.320;2023-01-25T15:29:15;101676.22;;;3.23;87.31
12868;BME280;33517;49.866;8.320;2023-01-25T15:32:18;101673.44;;;3.26;87.34
12868;BME280;33517;49.866;8.320;2023-01-25T15:35:11;101681.44;;;3.23;87.13